Flight Track Log - Related Links

Times and Time Zones

All times are in EDT time to prevent confusion due to time zone crossing. See the SWA104 flight status page for this flight to view local times or setup timezone preferences in your user account.

Time Position Orientation Groundspeed Altitude Reporting Facility
EDT Latitude Longitude Course Direction KTS MPH feet Rate Location/Type
Sat 11:57:15 AM 40.7711 -111.9631 173° South 158 182 4,900  Level Salt Lake Center
Sat 11:57:30 AM 40.7675 -111.9625 173° South 133 153 5,200 1,714 Climbing Salt Lake Center
Sat 11:58:32 AM 40.7153 -111.9603 178° South 186 214 7,100 2,226 Climbing Salt Lake Center
Sat 11:59:34 AM 40.6450 -111.9583 179° South 256 295 9,800 2,565 Climbing Salt Lake Center
Sat 12:00:36 PM 40.5472 -111.9553 179° South 320 368 12,400 2,129 Climbing Salt Lake Center
Sat 12:01:38 PM 40.4494 -111.9525 179° South 356 410 14,200 2,710 Climbing Salt Lake Center
Sat 12:02:40 PM 40.3453 -111.9444 177° South 368 423 18,000 2,855 Climbing Salt Lake Center
Sat 12:03:42 PM 40.2419 -111.9428 179° South 377 434 20,100 2,226 Climbing Salt Lake Center
Sat 12:04:44 PM 40.1367 -111.9603 187° South 382 440 22,600 2,146 Climbing Salt Lake Center
Sat 12:05:45 PM 40.0283 -111.9761 186° South 391 450 24,500 1,805 Climbing Salt Lake Center
Sat 12:06:47 PM 39.8919 -111.9964 187° South 415 478 26,300 1,597 Climbing Salt Lake Center
Sat 12:07:49 PM 39.7719 -112.0147 187° South 434 499 27,800 1,452 Climbing Salt Lake Center
Sat 12:08:51 PM 39.6503 -112.0311 186° South 441 507 29,300 1,548 Climbing Salt Lake Center
Sat 12:09:53 PM 39.5267 -112.0506 187° South 447 514 31,000 823 Climbing Salt Lake Center
Sat 12:10:55 PM 39.4114 -112.1131 203° Southwest 453 521 31,000  Level Salt Lake Center
Sat 12:11:57 PM 39.2975 -112.1822 205° Southwest 451 519 31,000 387 Level Salt Lake Center
Sat 12:12:59 PM 39.1767 -112.2506 204° Southwest 438 504 31,800 1,024 Climbing Salt Lake Center
Sat 12:14:00 PM 39.0725 -112.3261 209° Southwest 431 496 33,100 1,268 Climbing Salt Lake Center
Sat 12:15:02 PM 38.9708 -112.4164 215° Southwest 441 507 34,400 1,355 Climbing Salt Lake Center
Sat 12:16:04 PM 38.8508 -112.5217 214° Southwest 438 504 35,900 774 Climbing Salt Lake Center
Sat 12:17:06 PM 38.7475 -112.6094 214° Southwest 445 512 36,000 48 Climbing Salt Lake Center
Sat 12:18:08 PM 38.6417 -112.7008 214° Southwest 456 525 36,000  Level Salt Lake Center
Sat 12:19:10 PM 38.5369 -112.7892 213° Southwest 455 524 36,000  Level Salt Lake Center
Sat 12:20:12 PM 38.4322 -112.8775 213° Southwest 453 521 36,000  Level Salt Lake Center
Sat 12:21:14 PM 38.3267 -112.9683 214° Southwest 457 526 36,000  Level Salt Lake Center
Sat 12:22:16 PM 38.2006 -113.0739 213° Southwest 455 524 36,000  Level Salt Lake Center
Sat 12:23:17 PM 38.0958 -113.1628 214° Southwest 455 524 36,000  Level Salt Lake Center
Sat 12:24:19 PM 37.9914 -113.2494 213° Southwest 453 521 36,000  Level Salt Lake Center
Sat 12:25:21 PM 37.8889 -113.3347 213° Southwest 447 514 36,000  Level Salt Lake Center
Sat 12:26:23 PM 37.7875 -113.4194 213° Southwest 443 510 36,000  Level Salt Lake Center
Sat 12:27:25 PM 37.6653 -113.5200 213° Southwest 441 507 36,000  Level Salt Lake Center
Sat 12:28:24 PM 37.5844 -113.5869 213° Southwest 441 507 36,000  Level Los Angeles Center
Sat 12:29:26 PM 37.4614 -113.6850 212° Southwest 440 506 36,000  Level Los Angeles Center
Sat 12:30:28 PM 37.3608 -113.7683 213° Southwest 436 502 36,000  Level Los Angeles Center
Sat 12:31:30 PM 37.2583 -113.8506 213° Southwest 438 504 36,000  Level Los Angeles Center
Sat 12:32:32 PM 37.1431 -113.9450 213° Southwest 437 503 36,000  Level Los Angeles Center
Sat 12:33:34 PM 37.0422 -114.0275 213° Southwest 434 499 36,000  Level Los Angeles Center
Sat 12:34:36 PM 36.9392 -114.1103 213° Southwest 437 503 36,000  Level Los Angeles Center
Sat 12:35:38 PM 36.8367 -114.1928 213° Southwest 437 503 36,000  Level Los Angeles Center
Sat 12:36:40 PM 36.7342 -114.2744 213° Southwest 436 502 36,000  Level Los Angeles Center
Sat 12:37:43 PM 36.6306 -114.3589 213° Southwest 442 509 36,000  Level Los Angeles Center
Sat 12:38:45 PM 36.5275 -114.4422 213° Southwest 441 507 36,000  Level Los Angeles Center
Sat 12:39:47 PM 36.4025 -114.5414 213° Southwest 442 509 36,000  Level Los Angeles Center
Sat 12:40:49 PM 36.2981 -114.6239 212° Southwest 442 509 36,000  Level Los Angeles Center
Sat 12:42:03 PM 36.1731 -114.7222 212° Southwest 441 507 36,000  Level Los Angeles Center
Sat 12:43:05 PM 36.0700 -114.8044 213° Southwest 439 505 36,000  Level Los Angeles Center
Sat 12:44:07 PM 35.9714 -114.8939 216° Southwest 438 504 36,000  Level Los Angeles Center
Sat 12:45:09 PM 35.8908 -115.0036 228° Southwest 429 494 36,000  Level Los Angeles Center
Sat 12:46:11 PM 35.8114 -115.1133 228° Southwest 427 491 36,000  Level Los Angeles Center
Sat 12:47:25 PM 35.7169 -115.2425 228° Southwest 423 487 36,000  Level Los Angeles Center
Sat 12:48:28 PM 35.6222 -115.3703 228° Southwest 419 482 36,000  Level Los Angeles Center
Sat 12:49:30 PM 35.5450 -115.4747 228° Southwest 413 475 36,000  Level Los Angeles Center
Sat 12:50:32 PM 35.4661 -115.5792 227° Southwest 414 476 36,000  Level Los Angeles Center
Sat 12:51:34 PM 35.3847 -115.6881 228° Southwest 413 475 36,000  Level Los Angeles Center
Sat 12:52:36 PM 35.3011 -115.7822 223° Southwest 409 471 36,000  Level Los Angeles Center
Sat 12:53:38 PM 35.2169 -115.8783 223° Southwest 414 476 36,000  Level Los Angeles Center
Sat 12:54:40 PM 35.1331 -115.9733 223° Southwest 412 474 36,000  Level Los Angeles Center
Sat 12:55:42 PM 35.0489 -116.0681 223° Southwest 411 473 36,000  Level Los Angeles Center
Sat 12:56:45 PM 34.9478 -116.1800 222° Southwest 409 471 36,000  Level Los Angeles Center
Sat 12:57:46 PM 34.8628 -116.2744 222° Southwest 412 474 36,000  Level Los Angeles Center
Sat 12:58:48 PM 34.7792 -116.3678 223° Southwest 408 470 36,000  Level Los Angeles Center
Sat 12:59:50 PM 34.6953 -116.4614 223° Southwest 409 471 36,000 -1,016 Level Los Angeles Center
Sat 01:00:52 PM 34.6114 -116.5533 222° Southwest 406 467 33,900 -2,613 Descending Los Angeles Center
Sat 01:01:54 PM 34.5267 -116.6478 223° Southwest 411 473 30,600 -3,194 Descending Los Angeles Center
Sat 01:02:56 PM 34.4408 -116.7422 222° Southwest 415 478 27,300 -3,072 Descending Los Angeles Center
Sat 01:03:59 PM 34.3381 -116.8544 222° Southwest 413 475 24,200 -2,736 Descending Los Angeles Center
Sat 01:05:01 PM 34.2542 -116.9464 222° Southwest 408 470 21,600 -2,468 Descending Los Angeles Center
Sat 01:06:03 PM 34.1722 -117.0361 222° Southwest 398 458 19,100 -1,790 Descending Los Angeles Center
Sat 01:07:05 PM 34.1000 -117.1333 228° Southwest 359 413 17,900 -590 Descending Southern California TRACON
Sat 01:08:05 PM 34.0500 -117.2500 243° Southwest 353 406 17,900 -1,150 Level Southern California TRACON
Sat 01:09:05 PM 34.0333 -117.3667 260° West 350 403 15,600 -2,182 Descending Southern California TRACON
Sat 01:10:06 PM 34.0333 -117.4833 270° West 324 373 13,500 -1,537 Descending Southern California TRACON
Sat 01:11:06 PM 34.0333 -117.5833 270° West 295 339 12,500 -1,100 Descending Southern California TRACON
Sat 01:12:06 PM 34.0167 -117.6667 256° West 268 308 11,300 -1,263 Descending Southern California TRACON
Sat 01:13:00 PM 34.0167 -117.7667 270° West 277 319 10,100 -1,684 Descending Southern California TRACON
Sat 01:14:00 PM 34.0000 -117.8500 256° West 285 328 8,100 -1,571 Descending Southern California TRACON
Sat 01:15:06 PM 34.0000 -117.9500 270° West 272 313 6,800 -1,091 Descending Southern California TRACON
Sat 01:16:01 PM 33.9833 -118.0333 256° West 234 269 5,900 -1,200 Descending Southern California TRACON
Sat 01:17:01 PM 33.9833 -118.1000 270° West 229 264 4,500 -1,200 Descending Southern California TRACON
Sat 01:18:01 PM 33.9667 -118.1833 256° West 213 245 3,500 -900 Descending Southern California TRACON
Sat 01:19:01 PM 33.9667 -118.2500 270° West 204 235 2,700 -942 Descending Southern California TRACON
Sat 01:20:02 PM 33.9667 -118.3167 270° West 190 219 1,600 -923 Descending Southern California TRACON
Sat 01:20:32 PM 33.9589 -118.3397 248° West 197 227 1,300 -717 Descending Los Angeles Center
Sat 01:21:34 PM 33.9550 -118.3856 264° West 160 184 500 -532 Descending Los Angeles Center
Sat 01:22:36 PM 33.9500 -118.4278 262° West 151 174 200 -290 Descending Los Angeles Center
Sat 01:24:00 PM 33.9425 -118.4081 259° West  Level Estimated

Login

Don't have an account? Register now (free) for customized features, flight alerts, and more!